createdAt,value
2024-02-20T00:07:36.737Z,8.02
2024-02-20T00:10:27.371Z,8.04
2024-02-20T00:32:05.550Z,8.00
2024-02-20T00:34:37.018Z,7.90
2024-02-20T00:37:07.879Z,7.84
2024-02-20T00:39:38.550Z,7.80
2024-02-20T00:42:10.122Z,7.80
2024-02-20T00:44:45.444Z,7.70
2024-02-20T00:47:16.780Z,7.70
2024-02-20T00:49:48.957Z,7.70
2024-02-20T00:52:23.032Z,7.70
2024-02-20T00:54:54.472Z,7.70
2024-02-20T00:57:34.048Z,7.80
2024-02-20T01:00:15.570Z,7.80
2024-02-20T01:02:48.787Z,7.72
2024-02-20T01:05:21.345Z,7.76
2024-02-20T01:07:52.570Z,7.78
2024-02-20T01:10:28.309Z,7.80
2024-02-20T01:13:09.105Z,7.70
2024-02-20T01:15:40.973Z,7.70
2024-02-20T01:18:13.971Z,7.68
2024-02-20T01:21:19.266Z,7.60
2024-02-20T01:23:50.688Z,7.60
2024-02-20T01:26:22.879Z,7.56
2024-02-20T01:28:55.595Z,7.50
2024-02-20T01:31:28.707Z,7.50
2024-02-20T01:34:00.823Z,7.50
2024-02-20T01:36:32.696Z,7.50
2024-02-20T01:39:03.834Z,7.50
2024-02-20T01:41:34.939Z,7.50
2024-02-20T01:44:06.766Z,7.50
2024-02-20T01:46:38.723Z,7.50
2024-02-20T01:49:10.601Z,7.50
2024-02-20T01:51:42.523Z,7.50
2024-02-20T01:54:13.632Z,7.50
2024-02-20T01:56:48.362Z,7.50
2024-02-20T01:59:19.395Z,7.48
2024-02-20T02:01:50.260Z,7.48
2024-02-20T02:04:21.769Z,7.50
2024-02-20T02:06:52.669Z,7.50
2024-02-20T02:09:23.696Z,7.50
2024-02-20T02:11:55.055Z,7.50
2024-02-20T02:14:28.070Z,7.50
2024-02-20T02:17:01.419Z,7.48
2024-02-20T02:19:32.745Z,7.40
2024-02-20T02:22:04.213Z,7.40
2024-02-20T02:24:35.562Z,7.40
2024-02-20T02:27:07.623Z,7.40
2024-02-20T02:29:38.496Z,7.40
2024-02-20T02:32:10.218Z,7.50
2024-02-20T02:34:41.145Z,7.50
2024-02-20T02:37:12.407Z,7.50
2024-02-20T02:39:43.605Z,7.50
2024-02-20T02:42:15.246Z,7.50
2024-02-20T02:44:47.432Z,7.50
2024-02-20T02:47:18.807Z,7.50
2024-02-20T02:49:49.739Z,7.50
2024-02-20T02:52:23.180Z,7.50
2024-02-20T02:54:53.870Z,7.50
2024-02-20T02:59:32.440Z,7.50
2024-02-20T03:02:07.429Z,7.50
2024-02-20T03:05:27.711Z,7.58
2024-02-20T03:08:03.781Z,7.60
2024-02-20T03:10:38.505Z,7.70
2024-02-20T03:13:13.804Z,7.80
2024-02-20T03:15:49.369Z,7.80
2024-02-20T03:18:25.004Z,7.80
2024-02-20T03:20:59.928Z,7.80
2024-02-20T03:23:37.369Z,7.80
2024-02-20T03:26:12.284Z,7.80
2024-02-20T03:28:47.494Z,7.80
2024-02-20T03:31:22.359Z,7.80
2024-02-20T03:33:57.039Z,7.90
2024-02-20T03:36:32.518Z,7.90
2024-02-20T03:39:08.767Z,7.90
2024-02-20T03:41:43.763Z,8.00
2024-02-20T03:44:18.696Z,8.00
2024-02-20T03:46:53.357Z,8.04
2024-02-20T04:02:58.444Z,8.18
2024-02-20T04:05:35.195Z,8.20
2024-02-20T04:08:11.211Z,8.16
2024-02-20T04:10:46.159Z,8.10
2024-02-20T04:13:21.202Z,8.10
2024-02-20T04:15:56.089Z,8.04
2024-02-20T04:18:31.058Z,8.08
2024-02-20T04:21:06.275Z,8.10
2024-02-20T04:23:41.098Z,8.10
2024-02-20T04:26:15.608Z,8.10
2024-02-20T04:28:50.545Z,8.10
2024-02-20T04:31:25.418Z,8.10
2024-02-20T04:34:03.092Z,8.10
2024-02-20T04:36:37.996Z,8.10
2024-02-20T04:39:12.848Z,8.08
2024-02-20T04:41:47.568Z,8.02
2024-02-20T04:44:22.794Z,8.00
2024-02-20T04:46:57.428Z,8.00
2024-02-20T04:49:32.752Z,8.00
2024-02-20T04:52:07.904Z,8.00
2024-02-20T04:54:42.806Z,8.00
2024-02-20T04:57:17.480Z,8.10
2024-02-20T04:59:52.364Z,8.10
2024-02-20T05:02:27.770Z,8.08
2024-02-20T05:05:02.918Z,8.10
2024-02-20T05:07:37.629Z,8.10
2024-02-20T05:10:15.193Z,8.10
2024-02-20T05:12:50.992Z,8.06
2024-02-20T05:15:27.460Z,8.00
2024-02-20T05:18:02.296Z,8.00
2024-02-20T05:20:37.353Z,8.00
2024-02-20T05:23:15.188Z,8.00
2024-02-20T05:25:50.424Z,7.96
2024-02-20T05:28:25.456Z,7.92
2024-02-20T05:31:00.660Z,7.94
2024-02-20T05:33:35.295Z,7.92
2024-02-20T05:36:10.777Z,7.90
2024-02-20T05:38:45.461Z,7.90
2024-02-20T05:41:20.127Z,8.00
2024-02-20T05:43:58.668Z,8.00
2024-02-20T05:46:35.537Z,7.98
2024-02-20T05:49:10.862Z,7.90
2024-02-20T05:51:47.358Z,7.90
2024-02-20T05:54:22.227Z,7.90
2024-02-20T05:56:57.248Z,7.98
2024-02-20T05:59:32.004Z,8.00
2024-02-20T06:02:06.841Z,8.00
2024-02-20T06:04:42.335Z,8.00
2024-02-20T06:07:19.389Z,8.10
2024-02-20T06:09:53.993Z,8.10
2024-02-20T06:12:28.838Z,8.10
2024-02-20T06:15:05.792Z,8.10
2024-02-20T06:17:42.243Z,8.10
2024-02-20T06:20:17.789Z,8.08
2024-02-20T06:22:52.496Z,8.10
2024-02-20T06:25:27.816Z,8.10
2024-02-20T06:28:02.620Z,8.10
2024-02-20T06:30:37.613Z,8.10
2024-02-20T06:33:12.584Z,8.20
2024-02-20T06:35:47.469Z,8.20
2024-02-20T06:38:22.463Z,8.20
2024-02-20T06:40:57.281Z,8.20
2024-02-20T06:43:32.510Z,8.20
2024-02-20T06:46:07.663Z,8.20
2024-02-20T06:48:45.610Z,8.20
2024-02-20T06:51:23.469Z,8.20
2024-02-20T06:53:58.528Z,8.20
2024-02-20T06:56:33.903Z,8.20
2024-02-20T06:59:09.832Z,8.20
2024-02-20T07:01:45.473Z,8.28
2024-02-20T07:04:20.498Z,8.30
2024-02-20T07:06:57.156Z,8.40
2024-02-20T07:09:33.808Z,8.44
2024-02-20T07:12:12.458Z,8.40
2024-02-20T07:14:48.018Z,8.40
2024-02-20T07:17:25.365Z,8.40
2024-02-20T07:20:06.033Z,8.40
2024-02-20T07:22:51.267Z,8.42
2024-02-20T07:25:49.696Z,8.54
2024-02-20T07:28:32.959Z,8.60
2024-02-20T07:31:10.198Z,8.60
2024-02-20T07:33:50.759Z,8.60
2024-02-20T07:36:32.552Z,8.70
2024-02-20T07:39:08.506Z,8.70
2024-02-20T07:41:45.990Z,8.80
2024-02-20T07:44:22.276Z,8.80
2024-02-20T07:46:58.722Z,8.80
2024-02-20T07:49:34.388Z,8.80
2024-02-20T07:52:10.575Z,8.90
2024-02-20T07:54:52.414Z,8.90
2024-02-20T07:57:27.998Z,8.90
2024-02-20T08:00:13.024Z,8.96
2024-02-20T08:02:54.977Z,9.10
2024-02-20T08:05:30.186Z,9.10
2024-02-20T08:08:04.698Z,9.10
2024-02-20T08:10:39.188Z,9.10
2024-02-20T08:13:14.386Z,9.08
2024-02-20T08:15:49.102Z,9.08
2024-02-20T08:18:25.998Z,9.10
2024-02-20T08:21:01.428Z,9.20
2024-02-20T08:23:36.895Z,9.20
2024-02-20T08:26:35.037Z,9.20
2024-02-20T08:29:13.683Z,9.20
2024-02-20T08:31:48.844Z,9.30
2024-02-20T08:34:24.453Z,9.30
2024-02-20T08:37:00.070Z,9.30
2024-02-20T08:39:35.282Z,9.30
2024-02-20T08:42:11.696Z,9.30
2024-02-20T08:44:48.756Z,9.40
2024-02-20T08:47:24.494Z,9.40
2024-02-20T08:50:00.594Z,9.38
2024-02-20T08:52:37.004Z,9.40
2024-02-20T08:55:17.428Z,9.40
2024-02-20T08:57:54.920Z,9.34
2024-02-20T09:00:41.502Z,9.30
2024-02-20T09:03:18.257Z,9.34
2024-02-20T09:05:55.160Z,9.40
2024-02-20T09:08:30.906Z,9.50
2024-02-20T09:11:06.001Z,9.60
2024-02-20T09:13:45.488Z,9.80
2024-02-20T09:16:20.861Z,9.90
2024-02-20T09:18:57.427Z,9.90
2024-02-20T09:21:32.580Z,9.90
2024-02-20T09:24:08.129Z,9.96
2024-02-20T09:26:44.626Z,10.10
2024-02-20T09:29:22.969Z,10.20
2024-02-20T09:32:36.097Z,10.28
2024-02-20T09:35:12.827Z,10.30
2024-02-20T09:37:48.119Z,10.30
2024-02-20T09:40:25.368Z,10.20
2024-02-20T09:43:06.852Z,10.20
2024-02-20T09:45:47.457Z,10.48
2024-02-20T09:48:24.991Z,10.70
2024-02-20T09:51:03.065Z,10.70
2024-02-20T09:53:41.256Z,10.80
2024-02-20T09:56:20.294Z,10.80
2024-02-20T09:58:55.278Z,10.80
2024-02-20T10:01:32.786Z,10.64
2024-02-20T10:04:12.071Z,10.50
2024-02-20T10:06:47.437Z,10.34
2024-02-20T10:09:24.141Z,10.20
2024-02-20T10:11:59.364Z,10.10
2024-02-20T10:14:34.497Z,9.90
2024-02-20T10:17:09.532Z,9.72
2024-02-20T10:19:46.312Z,9.60
2024-02-20T10:22:30.490Z,9.50
2024-02-20T10:25:15.654Z,9.50
2024-02-20T10:27:51.291Z,9.70
2024-02-20T10:30:26.860Z,9.98
2024-02-20T10:33:02.225Z,10.14
2024-02-20T10:35:41.446Z,10.30
2024-02-20T10:38:22.950Z,10.50
2024-02-20T10:41:01.213Z,10.60
2024-02-20T10:43:39.027Z,10.50
2024-02-20T10:46:15.315Z,10.40
2024-02-20T10:48:57.663Z,10.40
2024-02-20T10:51:42.797Z,10.28
2024-02-20T10:54:19.925Z,10.04
2024-02-20T10:56:59.280Z,10.08
2024-02-20T10:59:37.292Z,10.02
2024-02-20T11:02:12.269Z,10.10
2024-02-20T11:04:48.976Z,10.20
2024-02-20T11:07:26.231Z,10.30
2024-02-20T11:10:23.732Z,10.44
2024-02-20T11:12:58.701Z,10.70
2024-02-20T11:15:34.085Z,10.80
2024-02-20T11:18:22.497Z,10.90
2024-02-20T11:21:08.788Z,11.00
2024-02-20T11:23:44.450Z,11.10
2024-02-20T11:26:19.401Z,11.18
2024-02-20T11:28:57.893Z,11.20
2024-02-20T11:31:34.918Z,11.08
2024-02-20T11:34:23.120Z,10.90
2024-02-20T11:36:58.210Z,10.70
2024-02-20T11:39:33.230Z,10.60
2024-02-20T11:42:09.003Z,10.60
2024-02-20T11:44:47.028Z,10.60
2024-02-20T11:47:22.828Z,10.48
2024-02-20T11:50:20.058Z,10.30
2024-02-20T11:53:14.603Z,10.10
2024-02-20T11:55:54.835Z,9.74
2024-02-20T11:58:30.696Z,9.46
2024-02-20T12:01:26.488Z,9.34
2024-02-20T12:04:09.283Z,9.20
2024-02-20T12:06:44.195Z,9.40
2024-02-20T12:09:25.086Z,10.40
2024-02-20T12:11:59.811Z,10.40
2024-02-20T12:14:34.677Z,10.40
2024-02-20T12:17:09.780Z,11.04
2024-02-20T12:19:44.854Z,11.50
2024-02-20T12:22:23.177Z,11.64
2024-02-20T12:25:10.455Z,12.56
2024-02-20T12:27:46.250Z,13.46
2024-02-20T12:30:22.213Z,13.50
2024-02-20T12:32:57.231Z,13.02
2024-02-20T12:35:33.394Z,12.42
2024-02-20T12:38:09.708Z,11.78
2024-02-20T12:40:44.977Z,11.20
2024-02-20T12:43:20.226Z,10.60
2024-02-20T12:45:56.211Z,10.24
2024-02-20T12:48:33.313Z,9.90
2024-02-20T12:51:08.333Z,9.80
2024-02-20T12:53:44.536Z,9.80
2024-02-20T12:56:19.608Z,9.70
2024-02-20T12:58:54.706Z,9.50
2024-02-20T13:01:30.101Z,9.30
2024-02-20T13:04:08.926Z,9.20
2024-02-20T13:06:43.781Z,9.20
2024-02-20T13:09:19.802Z,10.08
2024-02-20T13:12:01.101Z,11.40
2024-02-20T13:14:36.078Z,12.58
2024-02-20T13:17:13.727Z,13.64
2024-02-20T13:19:48.547Z,14.52
2024-02-20T13:22:23.107Z,15.16
2024-02-20T13:24:58.017Z,15.70
2024-02-20T13:27:32.485Z,16.38
2024-02-20T13:30:07.834Z,16.08
2024-02-20T13:32:48.828Z,15.16
2024-02-20T13:35:23.695Z,14.16
2024-02-20T13:37:58.313Z,13.48
2024-02-20T13:40:32.927Z,13.76
2024-02-20T13:43:10.784Z,15.06
2024-02-20T13:45:54.531Z,14.74
2024-02-20T13:48:30.152Z,14.44
2024-02-20T13:51:06.306Z,14.70
2024-02-20T13:53:45.279Z,14.26
2024-02-20T13:56:22.288Z,13.52
2024-02-20T13:58:57.351Z,13.00
2024-02-20T14:01:35.037Z,12.90
2024-02-20T14:04:21.368Z,12.70
2024-02-20T14:06:59.474Z,12.70
2024-02-20T14:09:47.569Z,12.40
2024-02-20T14:12:31.777Z,12.04
2024-02-20T14:15:13.566Z,11.70
2024-02-20T14:20:42.407Z,11.30
2024-02-20T14:23:17.517Z,11.10
2024-02-20T14:25:52.614Z,10.90
2024-02-20T14:28:40.236Z,10.80
2024-02-20T14:31:17.901Z,10.60
2024-02-20T14:33:53.320Z,10.50
2024-02-20T14:36:30.274Z,10.40
2024-02-20T14:39:06.533Z,10.34
2024-02-20T14:41:42.054Z,10.30
2024-02-20T14:44:23.842Z,10.30
2024-02-20T14:46:59.659Z,10.20
2024-02-20T14:49:36.026Z,10.10
2024-02-20T14:52:12.697Z,10.00
2024-02-20T14:54:48.591Z,9.90
2024-02-20T14:57:24.187Z,9.86
2024-02-20T15:00:00.851Z,9.80
2024-02-20T15:02:37.370Z,9.64
2024-02-20T15:05:16.231Z,9.52
2024-02-20T15:07:51.530Z,9.40
2024-02-20T15:10:30.126Z,9.30
2024-02-20T15:13:07.063Z,9.20
2024-02-20T15:16:33.061Z,8.92
2024-02-20T15:19:13.541Z,8.70
2024-02-20T15:21:49.834Z,8.60
2024-02-20T15:24:24.530Z,8.50
2024-02-20T15:26:59.760Z,8.42
2024-02-20T15:29:35.594Z,8.34
2024-02-20T15:32:13.883Z,8.20
2024-02-20T15:34:50.153Z,8.20
2024-02-20T15:37:25.153Z,8.10
2024-02-20T15:40:00.117Z,7.48
2024-02-20T15:42:35.572Z,6.84
2024-02-20T15:45:12.698Z,6.50
2024-02-20T15:47:47.346Z,6.40
2024-02-20T15:51:39.594Z,6.42
2024-02-20T15:54:14.454Z,6.40
2024-02-20T15:56:51.242Z,6.40
2024-02-20T15:59:53.322Z,6.38
2024-02-20T16:02:27.891Z,6.30
2024-02-20T16:05:02.566Z,6.40
2024-02-20T16:08:08.807Z,6.40
2024-02-20T16:10:45.232Z,6.40
2024-02-20T16:13:19.854Z,6.40
2024-02-20T16:15:55.064Z,6.40
2024-02-20T16:18:30.039Z,6.40
2024-02-20T16:21:05.378Z,6.40
2024-02-20T16:23:40.268Z,6.40
2024-02-20T16:26:22.076Z,6.40
2024-02-20T16:28:57.652Z,6.40
2024-02-20T16:31:41.845Z,6.44
2024-02-20T16:34:18.920Z,6.48
2024-02-20T16:37:01.176Z,6.48
2024-02-20T16:39:40.247Z,6.46
2024-02-20T16:42:15.163Z,6.50
2024-02-20T16:44:50.238Z,6.50
2024-02-20T16:47:27.272Z,6.50
2024-02-20T16:50:02.306Z,6.54
2024-02-20T16:52:37.949Z,6.60
2024-02-20T16:55:13.846Z,6.60
2024-02-20T16:57:59.944Z,6.60
2024-02-20T17:00:40.816Z,6.58
2024-02-20T17:03:19.569Z,6.60
2024-02-20T17:05:56.917Z,6.52
2024-02-20T17:08:36.347Z,6.56
2024-02-20T17:11:16.483Z,6.60
2024-02-20T17:13:52.295Z,6.60
2024-02-20T17:16:28.460Z,6.60
2024-02-20T17:19:04.194Z,6.60
2024-02-20T17:21:41.211Z,6.60
2024-02-20T17:24:17.477Z,6.60
2024-02-20T17:26:59.192Z,6.60
2024-02-20T17:29:39.109Z,6.60
2024-02-20T17:32:15.172Z,6.58
2024-02-20T17:34:50.615Z,6.50
2024-02-20T17:37:29.614Z,6.46
2024-02-20T17:40:07.145Z,6.40
2024-02-20T17:42:52.661Z,6.30
2024-02-20T17:45:32.731Z,6.30
2024-02-20T17:48:36.951Z,6.30
2024-02-20T17:51:28.109Z,6.30
2024-02-20T17:54:05.488Z,6.36
2024-02-20T17:56:45.040Z,6.40
2024-02-20T17:59:24.258Z,6.40
2024-02-20T18:01:59.615Z,6.50
2024-02-20T18:04:36.284Z,6.46
2024-02-20T18:07:12.523Z,6.50
2024-02-20T18:09:48.589Z,6.50
2024-02-20T18:12:23.573Z,6.50
2024-02-20T18:15:00.400Z,6.50
2024-02-20T18:17:36.666Z,6.50
2024-02-20T18:20:15.252Z,6.48
2024-02-20T18:22:50.307Z,6.50
2024-02-20T18:25:25.378Z,6.50
2024-02-20T18:28:00.907Z,6.42
2024-02-20T18:30:35.935Z,6.40
2024-02-20T18:33:12.647Z,6.40
2024-02-20T18:35:48.539Z,6.40
2024-02-20T18:38:27.110Z,6.40
2024-02-20T18:41:03.693Z,6.40
2024-02-20T18:43:40.896Z,6.50
2024-02-20T18:46:17.435Z,6.50
2024-02-20T18:48:52.899Z,6.50
2024-02-20T19:03:01.748Z,6.50
2024-02-20T19:05:36.816Z,6.50
2024-02-20T19:08:12.139Z,6.44
2024-02-20T19:10:47.238Z,6.40
2024-02-20T19:13:22.700Z,6.40
2024-02-20T19:15:58.223Z,6.40
2024-02-20T19:18:34.484Z,6.30
2024-02-20T19:21:11.361Z,6.20
2024-02-20T19:23:57.887Z,6.20
2024-02-20T19:26:42.443Z,6.20
2024-02-20T19:29:17.341Z,6.20
2024-02-20T19:31:51.813Z,6.20
2024-02-20T19:34:27.205Z,6.20
2024-02-20T19:37:01.825Z,6.20
2024-02-20T19:39:36.806Z,6.20
2024-02-20T19:42:11.709Z,6.20
2024-02-20T19:44:46.845Z,6.22
2024-02-20T19:47:23.929Z,6.30
2024-02-20T19:49:59.915Z,6.30
2024-02-20T19:52:41.424Z,6.30
2024-02-20T19:55:33.536Z,6.36
2024-02-20T19:58:42.477Z,6.40
2024-02-20T20:01:43.371Z,6.40
2024-02-20T20:04:19.269Z,6.48
2024-02-20T20:06:54.147Z,6.50
2024-02-20T20:09:29.378Z,6.50
2024-02-20T20:12:04.461Z,6.44
2024-02-20T20:14:39.190Z,6.46
2024-02-20T20:17:13.591Z,6.50
2024-02-20T20:19:48.037Z,6.52
2024-02-20T20:22:22.733Z,6.60
2024-02-20T20:24:57.410Z,6.50
2024-02-20T20:27:31.673Z,6.50
2024-02-20T20:30:07.008Z,6.40
2024-02-20T20:32:42.435Z,6.30
2024-02-20T20:35:21.758Z,6.30
2024-02-20T20:37:58.128Z,6.30
2024-02-20T20:40:35.590Z,6.40
2024-02-20T20:43:10.868Z,6.50
2024-02-20T20:45:46.524Z,6.56
2024-02-20T20:48:23.789Z,6.60
2024-02-20T20:51:15.757Z,6.60
2024-02-20T20:53:53.067Z,6.58
2024-02-20T20:56:34.710Z,6.60
2024-02-20T20:59:31.684Z,6.60
2024-02-20T21:02:14.811Z,6.60
2024-02-20T21:04:53.361Z,6.60
2024-02-20T21:07:30.057Z,6.58
2024-02-20T21:10:07.419Z,6.58
2024-02-20T21:12:44.230Z,6.60
2024-02-20T21:15:20.404Z,6.60
2024-02-20T21:17:58.248Z,6.62
2024-02-20T21:20:33.477Z,6.70
2024-02-20T21:23:09.675Z,6.70
2024-02-20T21:25:45.254Z,6.70
2024-02-20T21:28:22.867Z,6.70
2024-02-20T21:30:58.545Z,6.70
2024-02-20T21:33:33.990Z,6.72
2024-02-20T21:36:10.611Z,6.70
2024-02-20T21:38:46.046Z,6.70
2024-02-20T21:41:21.792Z,6.72
2024-02-20T21:43:56.777Z,6.70
2024-02-20T21:46:32.584Z,6.70
2024-02-20T21:49:08.070Z,6.70
2024-02-20T21:51:43.154Z,6.70
2024-02-20T21:54:18.782Z,6.70
2024-02-20T21:56:55.863Z,6.70
2024-02-20T21:59:31.730Z,6.68
2024-02-20T22:02:07.876Z,6.70
2024-02-20T22:04:43.096Z,6.70
2024-02-20T22:07:18.422Z,6.70
2024-02-20T22:09:53.579Z,6.70
2024-02-20T22:12:28.513Z,6.70
2024-02-20T22:15:07.421Z,6.78
2024-02-20T22:17:42.812Z,6.76
2024-02-20T22:20:19.835Z,6.70
2024-02-20T22:22:57.428Z,6.70
2024-02-20T22:25:34.500Z,6.70
2024-02-20T22:28:10.924Z,6.70
2024-02-20T22:30:46.011Z,6.70
2024-02-20T22:33:21.319Z,6.70
2024-02-20T22:35:57.452Z,6.80
2024-02-20T22:38:34.696Z,6.80
2024-02-20T22:41:19.795Z,6.80
2024-02-20T22:43:55.429Z,6.80
2024-02-20T22:46:30.663Z,6.80
2024-02-20T22:49:07.170Z,6.80
2024-02-20T22:51:42.785Z,6.80
2024-02-20T22:54:18.494Z,6.80
2024-02-20T22:56:56.223Z,6.80
2024-02-20T22:59:32.455Z,6.78
2024-02-20T23:02:09.638Z,6.80
2024-02-20T23:04:44.281Z,6.80
2024-02-20T23:07:18.806Z,6.80
2024-02-20T23:09:53.455Z,6.78
2024-02-20T23:12:27.842Z,6.80
2024-02-20T23:15:02.657Z,6.70
2024-02-20T23:17:37.191Z,6.70
2024-02-20T23:20:14.752Z,6.70
2024-02-20T23:22:49.209Z,6.72
2024-02-20T23:25:24.477Z,6.78
2024-02-20T23:28:01.771Z,6.80
2024-02-20T23:30:37.207Z,6.80
2024-02-20T23:33:12.552Z,6.80
2024-02-20T23:35:46.971Z,6.84
2024-02-20T23:38:20.934Z,6.90
2024-02-20T23:40:56.494Z,6.90
2024-02-20T23:43:32.436Z,6.90
2024-02-20T23:46:07.032Z,6.80
2024-02-20T23:48:41.511Z,6.80
2024-02-20T23:51:16.294Z,6.80
2024-02-20T23:53:50.180Z,6.80
2024-02-20T23:56:24.325Z,6.74
2024-02-20T23:58:58.725Z,6.74
